Wednesday, December 19, 2018, 1:05 AM EST
Back to Local

KSFZ, Pawtucket, North Central State Airport

Location: Smithfield, RI, United States Lat: 41.917
Local Time: 1:05 AM EST ( 6:05 GMT) Lon: -71.5
Time Zone: US/Eastern Elev: 439 ft

Show me the last for .
Show Decoded

2018-12-18 23:56 METAR KSFZ 190456Z AUTO 31006KT 10SM CLR M07/M12 A3002 RMK AO2 SLP116 T10671117
                 400171067 FZRANO =
2018-12-18 22:56 METAR KSFZ 190356Z AUTO 30006KT 10SM CLR M06/M11 A3003 RMK AO2 SLP120 T10611111
                 FZRANO =
2018-12-18 21:56 METAR KSFZ 190256Z AUTO 31009G14KT 10SM CLR M06/M11 A3002 RMK AO2 SLP118
                 T10561111 50003 FZRANO =
2018-12-18 20:56 METAR KSFZ 190156Z AUTO 31010G16KT 10SM CLR M05/M11 A3003 RMK AO2 SLP119
                 T10501111 FZRANO =
2018-12-18 19:56 METAR KSFZ 190056Z AUTO 32006G18KT 10SM CLR M04/M11 A3002 RMK AO2 SLP118
                 T10441111 FZRANO =
2018-12-18 18:56 METAR KSFZ 182356Z AUTO 29008KT 10SM CLR M04/M11 A3001 RMK AO2 SLP114 T10391111
                 11006 21039 51027 FZRANO =
2018-12-18 17:56 METAR KSFZ 182256Z AUTO 30009G14KT 10SM CLR M04/M11 A2999 RMK AO2 SLP107
                 T10391111 FZRANO =
2018-12-18 16:56 METAR KSFZ 182156Z AUTO 31010G19KT 10SM CLR M03/M11 A2996 RMK AO2 SLP096
                 T10331111 FZRANO =
2018-12-18 15:56 METAR KSFZ 182056Z AUTO 33011G16KT 10SM CLR M02/M11 A2993 RMK AO2 SLP086
                 T10221111 51028 FZRANO =
2018-12-18 14:56 METAR KSFZ 181956Z AUTO 32012G23KT 10SM CLR M02/M11 A2991 RMK AO2 SLP080
                 T10171111 FZRANO =
2018-12-18 13:56 METAR KSFZ 181856Z AUTO 29015G24KT 10SM CLR M01/M11 A2988 RMK AO2 SLP067
                 T10111106 FZRANO =
2018-12-18 12:56 METAR KSFZ 181756Z AUTO 33016G24KT 10SM CLR M01/M11 A2985 RMK AO2 PK WND
                 34028/1729 SLP058 T10111106 11011 21056 53003 FZRANO =
2018-12-18 10:56 METAR KSFZ 181556Z AUTO 33015G28KT 10SM CLR M03/M12 A2984 RMK AO2 PK WND
                 34032/1534 SLP054 T10331117 FZRANO =
2018-12-18 09:56 METAR KSFZ 181456Z AUTO 34022G29KT 10SM CLR M04/M12 A2984 RMK AO2 PK WND
                 34033/1407 SLP055 T10391117 51028 FZRANO =
2018-12-18 08:56 METAR KSFZ 181356Z AUTO 33014G22KT 10SM CLR M04/M12 A2982 RMK AO2 PK WND
                 32029/1336 SLP050 T10441117 FZRANO =
2018-12-18 07:56 METAR KSFZ 181256Z AUTO 32013G21KT 10SM CLR M06/M12 A2979 RMK AO2 PK WND
                 32028/1233 SLP037 T10561122 FZRANO =
2018-12-18 06:56 METAR KSFZ 181156Z AUTO 32013G25KT 10SM CLR M06/M12 A2976 RMK AO2 PK WND
                 31032/1145 SLP028 60000 70001 T10561122 10000 21056 52034 FZRANO =
2018-12-18 05:56 METAR KSFZ 181056Z AUTO 31017G28KT 10SM OVC043 M05/M12 A2973 RMK AO2 PK WND
                 30033/1024 SLP016 T10501122 FZRANO =
2018-12-18 04:56 METAR KSFZ 180956Z AUTO 33013G25KT 10SM OVC043 M04/M11 A2969 RMK AO2 SNB29E38
                 SLP003 P0000 T10391106 FZRANO =
2018-12-18 03:56 METAR KSFZ 180856Z AUTO 32015G24KT 290V350 10SM SCT041 OVC048 M03/M09 A2966 RMK
                 AO2 PK WND 30029/0838 SLP993 60000 T10281094 53028 FZRANO =
2018-12-18 02:56 METAR KSFZ 180756Z AUTO 31017G26KT 10SM FEW120 M02/M09 A2962 RMK AO2 PK WND
                 31031/0722 SLP979 T10171089 FZRANO =
2018-12-18 01:56 METAR KSFZ 180656Z AUTO 32017G25KT 10SM FEW027 M01/M06 A2960 RMK AO2 SNE26
                 SLP973 P0000 T10061056 FZRANO =
2018-12-18 01:24 METAR KSFZ 180624Z AUTO 30014G19KT 9SM -SN FEW005 SCT012 BKN090 M01/M02 A2958
                 RMK AO2 P0000 FZRANO =
2018-12-18 01:07 METAR KSFZ 180607Z AUTO 29011G21KT 4SM -SN BR SCT005 BKN013 OVC018 M01/M02 A2958
                 RMK AO2 P0000 FZRANO =

Support USWX by starting your Amazon purchase here.